sensor_id;sensor_type;location;lat;lon;timestamp;pressure;altitude;pressure_sealevel;temperature;humidity
46015;BME280;36844;51.898;-0.874;2023-03-19T00:01:46;99879.94;;;18.45;
46015;BME280;36844;51.898;-0.874;2023-03-19T00:04:11;99882.28;;;18.43;
46015;BME280;36844;51.898;-0.874;2023-03-19T00:06:36;99890.03;;;18.41;
46015;BME280;36844;51.898;-0.874;2023-03-19T00:09:02;99891.63;;;18.38;
46015;BME280;36844;51.898;-0.874;2023-03-19T00:11:27;99907.03;;;18.38;
46015;BME280;36844;51.898;-0.874;2023-03-19T00:13:52;99914.72;;;18.36;
46015;BME280;36844;51.898;-0.874;2023-03-19T00:16:17;99920.56;;;18.34;
46015;BME280;36844;51.898;-0.874;2023-03-19T00:18:43;99931.75;;;18.33;
46015;BME280;36844;51.898;-0.874;2023-03-19T00:21:08;99932.94;;;18.32;
46015;BME280;36844;51.898;-0.874;2023-03-19T00:23:34;99933.34;;;18.30;
46015;BME280;36844;51.898;-0.874;2023-03-19T00:26:00;99937.19;;;18.29;
46015;BME280;36844;51.898;-0.874;2023-03-19T00:28:26;99943.75;;;18.28;
46015;BME280;36844;51.898;-0.874;2023-03-19T00:30:52;99951.50;;;18.26;
46015;BME280;36844;51.898;-0.874;2023-03-19T00:33:17;99951.88;;;18.25;
46015;BME280;36844;51.898;-0.874;2023-03-19T00:35:44;99951.16;;;18.24;
46015;BME280;36844;51.898;-0.874;2023-03-19T00:38:09;99949.63;;;18.23;
46015;BME280;36844;51.898;-0.874;2023-03-19T00:40:34;99941.16;;;18.21;
46015;BME280;36844;51.898;-0.874;2023-03-19T00:42:59;99941.59;;;18.20;
46015;BME280;36844;51.898;-0.874;2023-03-19T00:45:25;99934.69;;;18.19;
46015;BME280;36844;51.898;-0.874;2023-03-19T00:47:51;99930.44;;;18.18;
46015;BME280;36844;51.898;-0.874;2023-03-19T00:50:16;99938.97;;;18.16;
46015;BME280;36844;51.898;-0.874;2023-03-19T00:52:41;99936.66;;;18.15;
46015;BME280;36844;51.898;-0.874;2023-03-19T00:55:07;99927.81;;;18.14;
46015;BME280;36844;51.898;-0.874;2023-03-19T00:57:32;99936.34;;;18.13;
46015;BME280;36844;51.898;-0.874;2023-03-19T00:59:57;99938.25;;;18.12;
46015;BME280;36844;51.898;-0.874;2023-03-19T01:02:24;99942.53;;;18.10;
46015;BME280;36844;51.898;-0.874;2023-03-19T01:04:49;99949.09;;;18.09;
46015;BME280;36844;51.898;-0.874;2023-03-19T01:07:15;99948.31;;;18.08;
46015;BME280;36844;51.898;-0.874;2023-03-19T01:09:40;99952.94;;;18.08;
46015;BME280;36844;51.898;-0.874;2023-03-19T01:12:06;99954.50;;;18.05;
46015;BME280;36844;51.898;-0.874;2023-03-19T01:14:31;99961.09;;;18.04;
46015;BME280;36844;51.898;-0.874;2023-03-19T01:16:56;99962.25;;;18.03;
46015;BME280;36844;51.898;-0.874;2023-03-19T01:19:22;99953.81;;;18.01;
46015;BME280;36844;51.898;-0.874;2023-03-19T01:21:48;99961.13;;;18.01;
46015;BME280;36844;51.898;-0.874;2023-03-19T01:24:13;99967.69;;;18.00;
46015;BME280;36844;51.898;-0.874;2023-03-19T01:26:39;99973.47;;;17.98;
46015;BME280;36844;51.898;-0.874;2023-03-19T01:29:04;99969.28;;;17.97;
46015;BME280;36844;51.898;-0.874;2023-03-19T01:31:30;99958.88;;;17.96;
46015;BME280;36844;51.898;-0.874;2023-03-19T01:33:55;99973.53;;;17.95;
46015;BME280;36844;51.898;-0.874;2023-03-19T01:36:20;99971.25;;;17.93;
46015;BME280;36844;51.898;-0.874;2023-03-19T01:38:46;99988.16;;;17.94;
46015;BME280;36844;51.898;-0.874;2023-03-19T01:41:11;99993.22;;;17.92;
46015;BME280;36844;51.898;-0.874;2023-03-19T01:43:36;99985.13;;;17.92;
46015;BME280;36844;51.898;-0.874;2023-03-19T01:50:58;99997.88;;;17.88;
46015;BME280;36844;51.898;-0.874;2023-03-19T01:53:27;99992.13;;;17.86;
46015;BME280;36844;51.898;-0.874;2023-03-19T01:55:54;99990.94;;;17.87;
46015;BME280;36844;51.898;-0.874;2023-03-19T01:58:20;99994.06;;;17.85;
46015;BME280;36844;51.898;-0.874;2023-03-19T02:00:45;99997.94;;;17.84;
46015;BME280;36844;51.898;-0.874;2023-03-19T02:03:11;99996.38;;;17.83;
46015;BME280;36844;51.898;-0.874;2023-03-19T02:05:36;100002.19;;;17.82;
46015;BME280;36844;51.898;-0.874;2023-03-19T02:08:04;99999.50;;;17.82;
46015;BME280;36844;51.898;-0.874;2023-03-19T02:10:30;99992.59;;;17.81;
46015;BME280;36844;51.898;-0.874;2023-03-19T02:12:55;100003.75;;;17.79;
46015;BME280;36844;51.898;-0.874;2023-03-19T02:15:21;100002.22;;;17.78;
46015;BME280;36844;51.898;-0.874;2023-03-19T02:17:46;99996.50;;;17.76;
46015;BME280;36844;51.898;-0.874;2023-03-19T02:20:29;99997.63;;;17.75;
46015;BME280;36844;51.898;-0.874;2023-03-19T02:23:19;100000.75;;;17.73;
46015;BME280;36844;51.898;-0.874;2023-03-19T02:28:15;99998.44;;;17.72;
46015;BME280;36844;51.898;-0.874;2023-03-19T02:30:41;99997.69;;;17.71;
46015;BME280;36844;51.898;-0.874;2023-03-19T02:33:14;100014.25;;;17.70;
46015;BME280;36844;51.898;-0.874;2023-03-19T02:35:39;100003.88;;;17.68;
46015;BME280;36844;51.898;-0.874;2023-03-19T02:38:06;100001.25;;;17.65;
46015;BME280;36844;51.898;-0.874;2023-03-19T02:40:35;100005.03;;;17.67;
46015;BME280;36844;51.898;-0.874;2023-03-19T02:43:02;99995.47;;;17.63;
46015;BME280;36844;51.898;-0.874;2023-03-19T02:45:28;99998.13;;;17.66;
46015;BME280;36844;51.898;-0.874;2023-03-19T02:47:54;99993.94;;;17.65;
46015;BME280;36844;51.898;-0.874;2023-03-19T02:50:19;99997.78;;;17.64;
46015;BME280;36844;51.898;-0.874;2023-03-19T02:52:44;100010.47;;;17.64;
46015;BME280;36844;51.898;-0.874;2023-03-19T02:55:10;100005.50;;;17.62;
46015;BME280;36844;51.898;-0.874;2023-03-19T02:57:35;100006.69;;;17.61;
46015;BME280;36844;51.898;-0.874;2023-03-19T03:00:01;100006.69;;;17.61;
46015;BME280;36844;51.898;-0.874;2023-03-19T03:02:26;100003.97;;;17.61;
46015;BME280;36844;51.898;-0.874;2023-03-19T03:04:51;100008.97;;;17.59;
46015;BME280;36844;51.898;-0.874;2023-03-19T03:07:16;100008.22;;;17.59;
46015;BME280;36844;51.898;-0.874;2023-03-19T03:09:42;100020.94;;;17.58;
46015;BME280;36844;51.898;-0.874;2023-03-19T03:12:07;100030.97;;;17.58;
46015;BME280;36844;51.898;-0.874;2023-03-19T03:14:32;100030.19;;;17.57;
46015;BME280;36844;51.898;-0.874;2023-03-19T03:16:59;100032.09;;;17.57;
46015;BME280;36844;51.898;-0.874;2023-03-19T03:19:24;100043.25;;;17.55;
46015;BME280;36844;51.898;-0.874;2023-03-19T03:21:49;100049.41;;;17.56;
46015;BME280;36844;51.898;-0.874;2023-03-19T03:24:15;100049.06;;;17.54;
46015;BME280;36844;51.898;-0.874;2023-03-19T03:26:40;100047.16;;;17.54;
46015;BME280;36844;51.898;-0.874;2023-03-19T03:29:05;100045.59;;;17.53;
46015;BME280;36844;51.898;-0.874;2023-03-19T03:31:31;100057.53;;;17.52;
46015;BME280;36844;51.898;-0.874;2023-03-19T03:33:56;100054.84;;;17.52;
46015;BME280;36844;51.898;-0.874;2023-03-19T03:36:22;100057.19;;;17.50;
46015;BME280;36844;51.898;-0.874;2023-03-19T03:38:47;100057.56;;;17.49;
46015;BME280;36844;51.898;-0.874;2023-03-19T03:41:12;100065.66;;;17.49;
46015;BME280;36844;51.898;-0.874;2023-03-19T03:43:37;100080.25;;;17.48;
46015;BME280;36844;51.898;-0.874;2023-03-19T03:46:03;100077.56;;;17.48;
46015;BME280;36844;51.898;-0.874;2023-03-19T03:48:29;100078.00;;;17.46;
46015;BME280;36844;51.898;-0.874;2023-03-19T03:50:54;100080.69;;;17.46;
46015;BME280;36844;51.898;-0.874;2023-03-19T03:53:19;100076.44;;;17.45;
46015;BME280;36844;51.898;-0.874;2023-03-19T03:55:44;100082.22;;;17.44;
46015;BME280;36844;51.898;-0.874;2023-03-19T03:58:10;100092.28;;;17.43;
46015;BME280;36844;51.898;-0.874;2023-03-19T04:00:37;100085.34;;;17.42;
46015;BME280;36844;51.898;-0.874;2023-03-19T04:03:02;100095.34;;;17.42;
46015;BME280;36844;51.898;-0.874;2023-03-19T04:05:27;100091.88;;;17.41;
46015;BME280;36844;51.898;-0.874;2023-03-19T04:07:53;100098.41;;;17.40;
46015;BME280;36844;51.898;-0.874;2023-03-19T04:10:18;100095.38;;;17.38;
46015;BME280;36844;51.898;-0.874;2023-03-19T04:12:43;100103.44;;;17.38;
46015;BME280;36844;51.898;-0.874;2023-03-19T04:15:10;100111.53;;;17.38;
46015;BME280;36844;51.898;-0.874;2023-03-19T04:17:35;100107.28;;;17.37;
46015;BME280;36844;51.898;-0.874;2023-03-19T04:20:01;100110.41;;;17.36;
46015;BME280;36844;51.898;-0.874;2023-03-19T04:22:29;100126.56;;;17.36;
46015;BME280;36844;51.898;-0.874;2023-03-19T04:24:54;100118.09;;;17.34;
46015;BME280;36844;51.898;-0.874;2023-03-19T04:27:19;100122.69;;;17.33;
46015;BME280;36844;51.898;-0.874;2023-03-19T04:29:45;100119.25;;;17.33;
46015;BME280;36844;51.898;-0.874;2023-03-19T04:32:10;100129.25;;;17.32;
46015;BME280;36844;51.898;-0.874;2023-03-19T04:34:35;100127.75;;;17.31;
46015;BME280;36844;51.898;-0.874;2023-03-19T04:37:01;100133.13;;;17.31;
46015;BME280;36844;51.898;-0.874;2023-03-19T04:39:27;100130.03;;;17.29;
46015;BME280;36844;51.898;-0.874;2023-03-19T04:41:52;100132.72;;;17.29;
46015;BME280;36844;51.898;-0.874;2023-03-19T04:44:18;100139.31;;;17.28;
46015;BME280;36844;51.898;-0.874;2023-03-19T04:46:43;100137.78;;;17.27;
46015;BME280;36844;51.898;-0.874;2023-03-19T04:49:09;100136.22;;;17.26;
46015;BME280;36844;51.898;-0.874;2023-03-19T04:51:35;100146.22;;;17.26;
46015;BME280;36844;51.898;-0.874;2023-03-19T04:54:00;100140.06;;;17.25;
46015;BME280;36844;51.898;-0.874;2023-03-19T04:56:25;100142.00;;;17.25;
46015;BME280;36844;51.898;-0.874;2023-03-19T04:58:51;100145.88;;;17.24;
46015;BME280;36844;51.898;-0.874;2023-03-19T05:01:17;100146.25;;;17.22;
46015;BME280;36844;51.898;-0.874;2023-03-19T05:03:42;100153.56;;;17.22;
46015;BME280;36844;51.898;-0.874;2023-03-19T05:06:08;100155.50;;;17.21;
46015;BME280;36844;51.898;-0.874;2023-03-19T05:08:33;100157.41;;;17.21;
46015;BME280;36844;51.898;-0.874;2023-03-19T05:10:58;100157.81;;;17.19;
46015;BME280;36844;51.898;-0.874;2023-03-19T05:13:23;100163.97;;;17.20;
46015;BME280;36844;51.898;-0.874;2023-03-19T05:15:51;100158.97;;;17.18;
46015;BME280;36844;51.898;-0.874;2023-03-19T05:18:17;100166.25;;;17.18;
46015;BME280;36844;51.898;-0.874;2023-03-19T05:20:42;100173.59;;;17.17;
46015;BME280;36844;51.898;-0.874;2023-03-19T05:23:08;100171.31;;;17.16;
46015;BME280;36844;51.898;-0.874;2023-03-19T05:25:33;100168.97;;;17.14;
46015;BME280;36844;51.898;-0.874;2023-03-19T05:28:02;100168.97;;;17.14;
46015;BME280;36844;51.898;-0.874;2023-03-19T05:30:28;100168.97;;;17.14;
46015;BME280;36844;51.898;-0.874;2023-03-19T05:32:54;100171.34;;;17.12;
46015;BME280;36844;51.898;-0.874;2023-03-19T05:35:20;100183.25;;;17.11;
46015;BME280;36844;51.898;-0.874;2023-03-19T05:37:45;100188.63;;;17.11;
46015;BME280;36844;51.898;-0.874;2023-03-19T05:40:11;100193.22;;;17.11;
46015;BME280;36844;51.898;-0.874;2023-03-19T05:42:36;100190.19;;;17.09;
46015;BME280;36844;51.898;-0.874;2023-03-19T05:45:02;100195.56;;;17.09;
46015;BME280;36844;51.898;-0.874;2023-03-19T05:47:28;100204.03;;;17.07;
46015;BME280;36844;51.898;-0.874;2023-03-19T05:49:53;100204.03;;;17.07;
46015;BME280;36844;51.898;-0.874;2023-03-19T05:52:19;100207.88;;;17.06;
46015;BME280;36844;51.898;-0.874;2023-03-19T05:54:44;100207.88;;;17.06;
46015;BME280;36844;51.898;-0.874;2023-03-19T05:57:13;100210.97;;;17.05;
46015;BME280;36844;51.898;-0.874;2023-03-19T05:59:38;100217.13;;;17.05;
46015;BME280;36844;51.898;-0.874;2023-03-19T06:02:03;100220.19;;;17.04;
46015;BME280;36844;51.898;-0.874;2023-03-19T06:04:28;100215.22;;;17.02;
46015;BME280;36844;51.898;-0.874;2023-03-19T06:06:54;100216.38;;;17.01;
46015;BME280;36844;51.898;-0.874;2023-03-19T06:09:19;100222.50;;;17.02;
46015;BME280;36844;51.898;-0.874;2023-03-19T06:11:44;100224.81;;;17.00;
46015;BME280;36844;51.898;-0.874;2023-03-19T06:14:10;100230.19;;;17.00;
46015;BME280;36844;51.898;-0.874;2023-03-19T06:16:35;100228.66;;;16.99;
46015;BME280;36844;51.898;-0.874;2023-03-19T06:19:01;100244.78;;;16.99;
46015;BME280;36844;51.898;-0.874;2023-03-19T06:21:26;100244.03;;;16.98;
46015;BME280;36844;51.898;-0.874;2023-03-19T06:23:56;100242.53;;;16.97;
46015;BME280;36844;51.898;-0.874;2023-03-19T06:26:22;100249.06;;;16.96;
46015;BME280;36844;51.898;-0.874;2023-03-19T06:28:47;100253.66;;;16.96;
46015;BME280;36844;51.898;-0.874;2023-03-19T06:31:12;100252.88;;;16.95;
46015;BME280;36844;51.898;-0.874;2023-03-19T06:33:38;100252.16;;;16.95;
46015;BME280;36844;51.898;-0.874;2023-03-19T06:36:03;100264.81;;;16.94;
46015;BME280;36844;51.898;-0.874;2023-03-19T06:38:28;100267.91;;;16.93;
46015;BME280;36844;51.898;-0.874;2023-03-19T06:40:54;100271.00;;;16.91;
46015;BME280;36844;51.898;-0.874;2023-03-19T06:43:19;100281.75;;;16.91;
46015;BME280;36844;51.898;-0.874;2023-03-19T06:45:44;100280.97;;;16.91;
46015;BME280;36844;51.898;-0.874;2023-03-19T06:48:10;100282.91;;;16.90;
46015;BME280;36844;51.898;-0.874;2023-03-19T06:50:35;100287.13;;;16.91;
46015;BME280;36844;51.898;-0.874;2023-03-19T06:53:00;100285.19;;;16.92;
46015;BME280;36844;51.898;-0.874;2023-03-19T06:55:26;100290.56;;;16.92;
46015;BME280;36844;51.898;-0.874;2023-03-19T06:57:51;100295.59;;;16.93;
46015;BME280;36844;51.898;-0.874;2023-03-19T07:00:17;100291.72;;;16.94;
46015;BME280;36844;51.898;-0.874;2023-03-19T07:02:42;100302.09;;;16.96;
46015;BME280;36844;51.898;-0.874;2023-03-19T07:05:08;100303.63;;;16.97;
46015;BME280;36844;51.898;-0.874;2023-03-19T07:07:33;100310.13;;;16.99;
46015;BME280;36844;51.898;-0.874;2023-03-19T07:09:58;100315.16;;;17.01;
46015;BME280;36844;51.898;-0.874;2023-03-19T07:12:23;100325.13;;;17.04;
46015;BME280;36844;51.898;-0.874;2023-03-19T07:14:51;100328.56;;;17.08;
46015;BME280;36844;51.898;-0.874;2023-03-19T07:17:17;100336.59;;;17.11;
46015;BME280;36844;51.898;-0.874;2023-03-19T07:19:42;100338.50;;;17.14;
46015;BME280;36844;51.898;-0.874;2023-03-19T07:22:07;100341.19;;;17.18;
46015;BME280;36844;51.898;-0.874;2023-03-19T07:24:32;100334.63;;;17.22;
46015;BME280;36844;51.898;-0.874;2023-03-19T07:26:58;100335.38;;;17.26;
46015;BME280;36844;51.898;-0.874;2023-03-19T07:29:23;100336.91;;;17.31;
46015;BME280;36844;51.898;-0.874;2023-03-19T07:31:48;100338.44;;;17.35;
46015;BME280;36844;51.898;-0.874;2023-03-19T07:34:13;100343.38;;;17.40;
46015;BME280;36844;51.898;-0.874;2023-03-19T07:36:38;100340.28;;;17.45;
46015;BME280;36844;51.898;-0.874;2023-03-19T07:39:04;100343.38;;;17.51;
46015;BME280;36844;51.898;-0.874;2023-03-19T07:41:29;100352.53;;;17.57;
46015;BME280;36844;51.898;-0.874;2023-03-19T07:43:55;100358.66;;;17.61;
46015;BME280;36844;51.898;-0.874;2023-03-19T07:46:20;100356.31;;;17.66;
46015;BME280;36844;51.898;-0.874;2023-03-19T07:48:45;100359.75;;;17.70;
46015;BME280;36844;51.898;-0.874;2023-03-19T07:51:11;100355.88;;;17.75;
46015;BME280;36844;51.898;-0.874;2023-03-19T07:53:36;100361.63;;;17.81;
46015;BME280;36844;51.898;-0.874;2023-03-19T07:56:01;100360.44;;;17.85;
46015;BME280;36844;51.898;-0.874;2023-03-19T07:58:26;100365.00;;;17.88;
46015;BME280;36844;51.898;-0.874;2023-03-19T08:00:52;100367.72;;;17.92;
46015;BME280;36844;51.898;-0.874;2023-03-19T08:03:18;100361.50;;;17.95;
46015;BME280;36844;51.898;-0.874;2023-03-19T08:05:43;100369.56;;;17.98;
46015;BME280;36844;51.898;-0.874;2023-03-19T08:08:08;100373.41;;;18.01;
46015;BME280;36844;51.898;-0.874;2023-03-19T08:10:33;100375.31;;;18.04;
46015;BME280;36844;51.898;-0.874;2023-03-19T08:12:59;100375.69;;;18.06;
46015;BME280;36844;51.898;-0.874;2023-03-19T08:15:24;100372.56;;;18.07;
46015;BME280;36844;51.898;-0.874;2023-03-19T08:17:56;100374.47;;;18.10;
46015;BME280;36844;51.898;-0.874;2023-03-19T08:20:21;100385.66;;;18.12;
46015;BME280;36844;51.898;-0.874;2023-03-19T08:22:48;100382.53;;;18.14;
46015;BME280;36844;51.898;-0.874;2023-03-19T08:25:13;100394.06;;;18.14;
46015;BME280;36844;51.898;-0.874;2023-03-19T08:27:39;100402.56;;;18.16;
46015;BME280;36844;51.898;-0.874;2023-03-19T08:30:05;100399.88;;;18.16;
46015;BME280;36844;51.898;-0.874;2023-03-19T08:32:31;100408.69;;;18.17;
46015;BME280;36844;51.898;-0.874;2023-03-19T08:34:56;100409.44;;;18.17;
46015;BME280;36844;51.898;-0.874;2023-03-19T08:37:22;100414.47;;;18.19;
46015;BME280;36844;51.898;-0.874;2023-03-19T08:39:49;100423.31;;;18.19;
46015;BME280;36844;51.898;-0.874;2023-03-19T08:42:14;100414.47;;;18.19;
46015;BME280;36844;51.898;-0.874;2023-03-19T08:44:40;100413.69;;;18.18;
46015;BME280;36844;51.898;-0.874;2023-03-19T08:47:05;100415.25;;;18.19;
46015;BME280;36844;51.898;-0.874;2023-03-19T08:49:30;100420.63;;;18.19;
46015;BME280;36844;51.898;-0.874;2023-03-19T08:51:55;100431.41;;;18.19;
46015;BME280;36844;51.898;-0.874;2023-03-19T08:54:21;100433.34;;;18.19;
46015;BME280;36844;51.898;-0.874;2023-03-19T08:56:46;100430.63;;;18.19;
46015;BME280;36844;51.898;-0.874;2023-03-19T08:59:11;100426.41;;;18.18;
46015;BME280;36844;51.898;-0.874;2023-03-19T09:01:36;100427.56;;;18.17;
46015;BME280;36844;51.898;-0.874;2023-03-19T09:04:02;100424.88;;;18.17;
46015;BME280;36844;51.898;-0.874;2023-03-19T09:06:27;100434.91;;;18.16;
46015;BME280;36844;51.898;-0.874;2023-03-19T09:08:52;100441.44;;;18.15;
46015;BME280;36844;51.898;-0.874;2023-03-19T09:11:17;100443.38;;;18.15;
46015;BME280;36844;51.898;-0.874;2023-03-19T09:13:43;100445.28;;;18.14;
46015;BME280;36844;51.898;-0.874;2023-03-19T09:16:08;100448.41;;;18.13;
46015;BME280;36844;51.898;-0.874;2023-03-19T09:18:33;100451.13;;;18.13;
46015;BME280;36844;51.898;-0.874;2023-03-19T09:20:59;100451.13;;;18.13;
46015;BME280;36844;51.898;-0.874;2023-03-19T09:23:25;100454.94;;;18.12;
46015;BME280;36844;51.898;-0.874;2023-03-19T09:25:50;100450.72;;;18.11;
46015;BME280;36844;51.898;-0.874;2023-03-19T09:28:15;100462.66;;;18.10;
46015;BME280;36844;51.898;-0.874;2023-03-19T09:30:41;100467.69;;;18.08;
46015;BME280;36844;51.898;-0.874;2023-03-19T09:33:07;100472.28;;;18.07;
46015;BME280;36844;51.898;-0.874;2023-03-19T09:35:32;100469.59;;;18.07;
46015;BME280;36844;51.898;-0.874;2023-03-19T09:37:58;100466.13;;;18.07;
46015;BME280;36844;51.898;-0.874;2023-03-19T09:40:25;100472.28;;;18.07;
46015;BME280;36844;51.898;-0.874;2023-03-19T09:42:59;100472.28;;;18.07;
46015;BME280;36844;51.898;-0.874;2023-03-19T09:45:27;100482.31;;;18.07;
46015;BME280;36844;51.898;-0.874;2023-03-19T09:47:54;100484.25;;;18.06;
46015;BME280;36844;51.898;-0.874;2023-03-19T09:50:23;100482.31;;;18.07;
46015;BME280;36844;51.898;-0.874;2023-03-19T09:52:52;100482.31;;;18.07;
46015;BME280;36844;51.898;-0.874;2023-03-19T09:57:53;100487.69;;;18.07;
46015;BME280;36844;51.898;-0.874;2023-03-19T10:00:24;100490.38;;;18.07;
46015;BME280;36844;51.898;-0.874;2023-03-19T10:03:09;100501.16;;;18.07;
46015;BME280;36844;51.898;-0.874;2023-03-19T10:08:16;100499.66;;;18.06;
46015;BME280;36844;51.898;-0.874;2023-03-19T10:11:28;100505.81;;;18.06;
46015;BME280;36844;51.898;-0.874;2023-03-19T10:16:16;100502.75;;;18.04;
46015;BME280;36844;51.898;-0.874;2023-03-19T10:18:43;100492.72;;;18.05;
46015;BME280;36844;51.898;-0.874;2023-03-19T10:21:15;100507.34;;;18.04;
46015;BME280;36844;51.898;-0.874;2023-03-19T10:24:27;100504.66;;;18.04;
46015;BME280;36844;51.898;-0.874;2023-03-19T10:26:33;100505.81;;;18.03;
46015;BME280;36844;51.898;-0.874;2023-03-19T10:29:03;100509.28;;;18.03;
46015;BME280;36844;51.898;-0.874;2023-03-19T10:36:36;100510.84;;;18.01;
46015;BME280;36844;51.898;-0.874;2023-03-19T10:39:02;100510.84;;;18.01;
46015;BME280;36844;51.898;-0.874;2023-03-19T10:41:37;100516.59;;;17.99;
46015;BME280;36844;51.898;-0.874;2023-03-19T10:44:06;100517.78;;;17.98;
46015;BME280;36844;51.898;-0.874;2023-03-19T10:46:37;100506.63;;;17.96;
46015;BME280;36844;51.898;-0.874;2023-03-19T10:49:03;100508.94;;;17.94;
46015;BME280;36844;51.898;-0.874;2023-03-19T10:51:28;100516.25;;;17.94;
46015;BME280;36844;51.898;-0.874;2023-03-19T10:53:53;100511.25;;;17.92;
46015;BME280;36844;51.898;-0.874;2023-03-19T10:56:27;100506.28;;;17.91;
46015;BME280;36844;51.898;-0.874;2023-03-19T10:59:06;100505.13;;;17.88;
46015;BME280;36844;51.898;-0.874;2023-03-19T11:01:43;100505.13;;;17.88;
46015;BME280;36844;51.898;-0.874;2023-03-19T11:04:21;100513.59;;;17.87;
46015;BME280;36844;51.898;-0.874;2023-03-19T11:07:08;100514.38;;;17.87;
46015;BME280;36844;51.898;-0.874;2023-03-19T11:09:35;100512.81;;;17.86;
46015;BME280;36844;51.898;-0.874;2023-03-19T11:12:14;100513.59;;;17.87;
46015;BME280;36844;51.898;-0.874;2023-03-19T11:14:41;100520.53;;;17.88;
46015;BME280;36844;51.898;-0.874;2023-03-19T11:19:55;100519.75;;;17.87;
46015;BME280;36844;51.898;-0.874;2023-03-19T11:24:48;100517.84;;;17.88;
46015;BME280;36844;51.898;-0.874;2023-03-19T11:27:13;100517.84;;;17.88;
46015;BME280;36844;51.898;-0.874;2023-03-19T11:29:40;100525.94;;;17.88;
46015;BME280;36844;51.898;-0.874;2023-03-19T11:32:16;100530.53;;;17.87;
46015;BME280;36844;51.898;-0.874;2023-03-19T11:34:52;100535.94;;;17.87;
46015;BME280;36844;51.898;-0.874;2023-03-19T11:37:26;100532.47;;;17.87;
46015;BME280;36844;51.898;-0.874;2023-03-19T11:42:44;100535.94;;;17.87;
46015;BME280;36844;51.898;-0.874;2023-03-19T11:47:42;100544.78;;;17.88;
46015;BME280;36844;51.898;-0.874;2023-03-19T11:50:18;100540.53;;;17.87;
46015;BME280;36844;51.898;-0.874;2023-03-19T11:53:00;100544.78;;;17.88;
46015;BME280;36844;51.898;-0.874;2023-03-19T11:55:28;100550.53;;;17.86;
46015;BME280;36844;51.898;-0.874;2023-03-19T12:00:48;100540.53;;;17.87;
46015;BME280;36844;51.898;-0.874;2023-03-19T12:03:32;100544.41;;;17.86;
46015;BME280;36844;51.898;-0.874;2023-03-19T12:08:35;100554.00;;;17.87;
46015;BME280;36844;51.898;-0.874;2023-03-19T12:13:47;100552.09;;;17.87;
46015;BME280;36844;51.898;-0.874;2023-03-19T12:19:00;100540.91;;;17.89;
46015;BME280;36844;51.898;-0.874;2023-03-19T12:21:30;100540.53;;;17.90;
46015;BME280;36844;51.898;-0.874;2023-03-19T12:24:05;100536.69;;;17.91;
46015;BME280;36844;51.898;-0.874;2023-03-19T12:29:06;100536.28;;;17.96;
46015;BME280;36844;51.898;-0.874;2023-03-19T12:31:46;100533.19;;;17.98;
46015;BME280;36844;51.898;-0.874;2023-03-19T12:36:44;100540.84;;;18.03;
46015;BME280;36844;51.898;-0.874;2023-03-19T12:39:14;100528.91;;;18.04;
46015;BME280;36844;51.898;-0.874;2023-03-19T12:41:41;100530.81;;;18.07;
46015;BME280;36844;51.898;-0.874;2023-03-19T12:49:05;100544.25;;;18.14;
46015;BME280;36844;51.898;-0.874;2023-03-19T12:51:35;100541.97;;;18.16;
46015;BME280;36844;51.898;-0.874;2023-03-19T12:54:12;100542.72;;;18.20;
46015;BME280;36844;51.898;-0.874;2023-03-19T12:56:56;100538.81;;;18.21;
46015;BME280;36844;51.898;-0.874;2023-03-19T13:02:02;100539.97;;;18.27;
46015;BME280;36844;51.898;-0.874;2023-03-19T13:04:32;100534.16;;;18.28;
46015;BME280;36844;51.898;-0.874;2023-03-19T13:09:28;100533.38;;;18.35;
46015;BME280;36844;51.898;-0.874;2023-03-19T13:11:57;100540.25;;;18.36;
46015;BME280;36844;51.898;-0.874;2023-03-19T13:19:47;100541.75;;;18.44;
46015;BME280;36844;51.898;-0.874;2023-03-19T13:22:18;100543.31;;;18.45;
46015;BME280;36844;51.898;-0.874;2023-03-19T13:24:45;100544.84;;;18.46;
46015;BME280;36844;51.898;-0.874;2023-03-19T13:27:19;100549.44;;;18.49;
46015;BME280;36844;51.898;-0.874;2023-03-19T13:37:41;100549.06;;;18.50;
46015;BME280;36844;51.898;-0.874;2023-03-19T13:40:36;100555.56;;;18.53;
46015;BME280;36844;51.898;-0.874;2023-03-19T13:43:01;100544.78;;;18.53;
46015;BME280;36844;51.898;-0.874;2023-03-19T13:47:56;100549.03;;;18.54;
46015;BME280;36844;51.898;-0.874;2023-03-19T13:50:27;100542.84;;;18.53;
46015;BME280;36844;51.898;-0.874;2023-03-19T13:53:09;100553.28;;;18.55;
46015;BME280;36844;51.898;-0.874;2023-03-19T13:55:47;100554.00;;;18.55;
46015;BME280;36844;51.898;-0.874;2023-03-19T13:58:18;100545.94;;;18.55;
46015;BME280;36844;51.898;-0.874;2023-03-19T14:01:05;100553.28;;;18.55;
46015;BME280;36844;51.898;-0.874;2023-03-19T14:03:34;100554.00;;;18.55;
46015;BME280;36844;51.898;-0.874;2023-03-19T14:05:59;100561.38;;;18.55;
46015;BME280;36844;51.898;-0.874;2023-03-19T14:08:32;100559.00;;;18.57;
46015;BME280;36844;51.898;-0.874;2023-03-19T14:10:58;100557.50;;;18.56;
46015;BME280;36844;51.898;-0.874;2023-03-19T14:13:28;100547.88;;;18.55;
46015;BME280;36844;51.898;-0.874;2023-03-19T14:15:59;100554.00;;;18.55;
46015;BME280;36844;51.898;-0.874;2023-03-19T14:18:25;100564.06;;;18.55;
46015;BME280;36844;51.898;-0.874;2023-03-19T14:20:57;100551.31;;;18.55;
46015;BME280;36844;51.898;-0.874;2023-03-19T14:23:24;100558.66;;;18.55;
46015;BME280;36844;51.898;-0.874;2023-03-19T14:29:10;100562.88;;;18.56;
46015;BME280;36844;51.898;-0.874;2023-03-19T14:31:18;100565.97;;;18.54;
46015;BME280;36844;51.898;-0.874;2023-03-19T14:33:57;100564.06;;;18.55;
46015;BME280;36844;51.898;-0.874;2023-03-19T14:36:23;100567.91;;;18.54;
46015;BME280;36844;51.898;-0.874;2023-03-19T14:41:16;100570.59;;;18.54;
46015;BME280;36844;51.898;-0.874;2023-03-19T14:46:32;100578.31;;;18.52;
46015;BME280;36844;51.898;-0.874;2023-03-19T14:53:57;100584.13;;;18.50;
46015;BME280;36844;51.898;-0.874;2023-03-19T14:56:26;100587.22;;;18.49;
46015;BME280;36844;51.898;-0.874;2023-03-19T14:58:55;100593.75;;;18.48;
46015;BME280;36844;51.898;-0.874;2023-03-19T15:01:21;100603.75;;;18.47;